sensor_id;sensor_type;location;lat;lon;timestamp;temperature;humidity
1546;DHT22;766;51.502;9.752;2024-03-23T00:54:38;9.00;99.90
1546;DHT22;766;51.502;9.752;2024-03-23T00:57:05;8.90;99.90
1546;DHT22;766;51.502;9.752;2024-03-23T00:59:31;8.90;99.90
1546;DHT22;766;51.502;9.752;2024-03-23T01:01:59;8.70;99.90
1546;DHT22;766;51.502;9.752;2024-03-23T01:04:25;8.60;99.90
1546;DHT22;766;51.502;9.752;2024-03-23T01:06:52;8.50;99.90
1546;DHT22;766;51.502;9.752;2024-03-23T01:09:20;8.50;99.90
1546;DHT22;766;51.502;9.752;2024-03-23T01:11:48;8.50;99.90
1546;DHT22;766;51.502;9.752;2024-03-23T01:14:14;8.50;99.90
1546;DHT22;766;51.502;9.752;2024-03-23T01:16:42;8.50;99.90
1546;DHT22;766;51.502;9.752;2024-03-23T01:19:08;8.40;99.90
1546;DHT22;766;51.502;9.752;2024-03-23T01:21:35;8.50;99.90
1546;DHT22;766;51.502;9.752;2024-03-23T01:24:01;8.40;99.90
1546;DHT22;766;51.502;9.752;2024-03-23T01:26:30;8.40;99.90
1546;DHT22;766;51.502;9.752;2024-03-23T01:28:56;8.50;99.90
1546;DHT22;766;51.502;9.752;2024-03-23T01:31:23;8.50;99.90
1546;DHT22;766;51.502;9.752;2024-03-23T01:33:50;8.50;99.90
1546;DHT22;766;51.502;9.752;2024-03-23T01:36:17;8.40;99.90
1546;DHT22;766;51.502;9.752;2024-03-23T01:38:44;8.40;99.90
1546;DHT22;766;51.502;9.752;2024-03-23T01:41:11;8.50;99.90
1546;DHT22;766;51.502;9.752;2024-03-23T01:43:39;8.50;99.90
1546;DHT22;766;51.502;9.752;2024-03-23T01:46:07;8.40;99.90
1546;DHT22;766;51.502;9.752;2024-03-23T01:48:33;8.40;99.90
1546;DHT22;766;51.502;9.752;2024-03-23T01:51:00;8.30;99.90
1546;DHT22;766;51.502;9.752;2024-03-23T01:53:27;8.30;99.90
1546;DHT22;766;51.502;9.752;2024-03-23T01:55:55;8.40;99.90
1546;DHT22;766;51.502;9.752;2024-03-23T01:58:22;8.40;99.90
1546;DHT22;766;51.502;9.752;2024-03-23T02:00:51;8.40;99.90
1546;DHT22;766;51.502;9.752;2024-03-23T02:03:24;8.40;99.90
1546;DHT22;766;51.502;9.752;2024-03-23T02:05:51;8.40;99.90
1546;DHT22;766;51.502;9.752;2024-03-23T02:08:20;8.40;99.90
1546;DHT22;766;51.502;9.752;2024-03-23T02:10:48;8.40;99.90
1546;DHT22;766;51.502;9.752;2024-03-23T02:13:14;8.40;99.90
1546;DHT22;766;51.502;9.752;2024-03-23T02:15:42;8.30;99.90
1546;DHT22;766;51.502;9.752;2024-03-23T02:18:10;8.30;99.90
1546;DHT22;766;51.502;9.752;2024-03-23T02:20:37;8.30;99.90
1546;DHT22;766;51.502;9.752;2024-03-23T02:23:05;8.30;99.90
1546;DHT22;766;51.502;9.752;2024-03-23T02:25:33;8.20;99.90
1546;DHT22;766;51.502;9.752;2024-03-23T02:27:59;8.30;99.90
1546;DHT22;766;51.502;9.752;2024-03-23T02:30:27;8.30;99.90
1546;DHT22;766;51.502;9.752;2024-03-23T02:32:53;8.30;99.90
1546;DHT22;766;51.502;9.752;2024-03-23T02:35:20;8.20;99.90
1546;DHT22;766;51.502;9.752;2024-03-23T02:37:49;8.20;99.90
1546;DHT22;766;51.502;9.752;2024-03-23T02:40:19;8.10;99.90
1546;DHT22;766;51.502;9.752;2024-03-23T02:42:46;8.10;99.90
1546;DHT22;766;51.502;9.752;2024-03-23T02:45:13;8.10;99.90
1546;DHT22;766;51.502;9.752;2024-03-23T02:47:39;8.10;99.90
1546;DHT22;766;51.502;9.752;2024-03-23T02:50:08;8.00;99.90
1546;DHT22;766;51.502;9.752;2024-03-23T02:52:35;8.00;99.90
1546;DHT22;766;51.502;9.752;2024-03-23T02:55:02;7.90;99.90
1546;DHT22;766;51.502;9.752;2024-03-23T02:57:30;7.90;99.90
1546;DHT22;766;51.502;9.752;2024-03-23T02:59:58;7.90;99.90
1546;DHT22;766;51.502;9.752;2024-03-23T03:02:24;7.90;99.90
1546;DHT22;766;51.502;9.752;2024-03-23T03:04:51;7.90;99.90
1546;DHT22;766;51.502;9.752;2024-03-23T03:07:17;7.90;99.90
1546;DHT22;766;51.502;9.752;2024-03-23T03:09:45;7.90;99.90
1546;DHT22;766;51.502;9.752;2024-03-23T03:12:11;7.80;99.90
1546;DHT22;766;51.502;9.752;2024-03-23T03:14:40;7.80;99.90
1546;DHT22;766;51.502;9.752;2024-03-23T03:17:07;7.80;99.90
1546;DHT22;766;51.502;9.752;2024-03-23T03:19:34;7.80;99.90
1546;DHT22;766;51.502;9.752;2024-03-23T03:22:00;7.70;99.90
1546;DHT22;766;51.502;9.752;2024-03-23T03:24:30;7.70;99.90
1546;DHT22;766;51.502;9.752;2024-03-23T03:26:56;7.60;99.90
1546;DHT22;766;51.502;9.752;2024-03-23T03:29:24;7.50;99.90
1546;DHT22;766;51.502;9.752;2024-03-23T03:31:51;7.50;99.90
1546;DHT22;766;51.502;9.752;2024-03-23T03:34:19;7.50;99.90
1546;DHT22;766;51.502;9.752;2024-03-23T03:36:45;7.40;99.90
1546;DHT22;766;51.502;9.752;2024-03-23T03:39:12;7.40;99.90
1546;DHT22;766;51.502;9.752;2024-03-23T03:41:39;7.30;99.90
1546;DHT22;766;51.502;9.752;2024-03-23T03:44:06;7.20;99.90
1546;DHT22;766;51.502;9.752;2024-03-23T03:46:32;7.30;99.90
1546;DHT22;766;51.502;9.752;2024-03-23T03:49:01;7.20;99.90
1546;DHT22;766;51.502;9.752;2024-03-23T03:51:27;7.20;99.90
1546;DHT22;766;51.502;9.752;2024-03-23T03:53:54;7.20;99.90
1546;DHT22;766;51.502;9.752;2024-03-23T03:56:20;7.10;99.90
1546;DHT22;766;51.502;9.752;2024-03-23T03:58:48;7.10;99.90
1546;DHT22;766;51.502;9.752;2024-03-23T04:01:14;7.10;99.90
1546;DHT22;766;51.502;9.752;2024-03-23T04:03:43;7.10;99.90
1546;DHT22;766;51.502;9.752;2024-03-23T04:06:11;7.10;99.90
1546;DHT22;766;51.502;9.752;2024-03-23T04:08:38;7.10;99.90
1546;DHT22;766;51.502;9.752;2024-03-23T04:11:04;7.10;99.90
1546;DHT22;766;51.502;9.752;2024-03-23T04:13:31;7.10;99.90
1546;DHT22;766;51.502;9.752;2024-03-23T04:15:58;7.00;99.90
1546;DHT22;766;51.502;9.752;2024-03-23T04:18:25;7.00;99.90
1546;DHT22;766;51.502;9.752;2024-03-23T04:20:51;6.90;99.90
1546;DHT22;766;51.502;9.752;2024-03-23T04:23:20;6.90;99.90
1546;DHT22;766;51.502;9.752;2024-03-23T04:25:47;7.00;99.90
1546;DHT22;766;51.502;9.752;2024-03-23T04:28:14;6.90;99.90
1546;DHT22;766;51.502;9.752;2024-03-23T04:30:40;7.00;99.90
1546;DHT22;766;51.502;9.752;2024-03-23T04:33:07;6.90;99.90
1546;DHT22;766;51.502;9.752;2024-03-23T04:35:34;6.90;99.90
1546;DHT22;766;51.502;9.752;2024-03-23T04:38:01;6.80;99.90
1546;DHT22;766;51.502;9.752;2024-03-23T04:40:30;6.80;99.90
1546;DHT22;766;51.502;9.752;2024-03-23T04:42:57;6.70;99.90
1546;DHT22;766;51.502;9.752;2024-03-23T04:45:24;6.70;99.90
1546;DHT22;766;51.502;9.752;2024-03-23T04:47:51;6.60;99.90
1546;DHT22;766;51.502;9.752;2024-03-23T04:50:19;6.60;99.90
1546;DHT22;766;51.502;9.752;2024-03-23T04:52:46;6.50;99.90
1546;DHT22;766;51.502;9.752;2024-03-23T04:55:16;6.50;99.90
1546;DHT22;766;51.502;9.752;2024-03-23T04:57:45;6.50;99.90
1546;DHT22;766;51.502;9.752;2024-03-23T05:00:12;6.40;99.90
1546;DHT22;766;51.502;9.752;2024-03-23T05:02:44;6.30;99.90
1546;DHT22;766;51.502;9.752;2024-03-23T05:05:11;6.30;99.90
1546;DHT22;766;51.502;9.752;2024-03-23T05:07:38;6.30;99.90
1546;DHT22;766;51.502;9.752;2024-03-23T05:10:05;6.30;99.90
1546;DHT22;766;51.502;9.752;2024-03-23T05:12:36;6.30;99.90
1546;DHT22;766;51.502;9.752;2024-03-23T05:15:04;6.30;99.90
1546;DHT22;766;51.502;9.752;2024-03-23T05:17:31;6.30;99.90
1546;DHT22;766;51.502;9.752;2024-03-23T05:19:58;6.20;99.90
1546;DHT22;766;51.502;9.752;2024-03-23T05:22:25;6.10;99.90
1546;DHT22;766;51.502;9.752;2024-03-23T05:24:54;6.20;99.90
1546;DHT22;766;51.502;9.752;2024-03-23T05:27:21;6.10;99.90
1546;DHT22;766;51.502;9.752;2024-03-23T05:29:47;6.10;99.90
1546;DHT22;766;51.502;9.752;2024-03-23T05:32:16;6.10;99.90
1546;DHT22;766;51.502;9.752;2024-03-23T05:34:43;6.00;99.90
1546;DHT22;766;51.502;9.752;2024-03-23T05:37:11;6.00;99.90
1546;DHT22;766;51.502;9.752;2024-03-23T05:39:37;5.90;99.90
1546;DHT22;766;51.502;9.752;2024-03-23T05:42:07;6.00;99.90
1546;DHT22;766;51.502;9.752;2024-03-23T05:44:34;5.90;99.90
1546;DHT22;766;51.502;9.752;2024-03-23T05:47:01;5.80;99.90
1546;DHT22;766;51.502;9.752;2024-03-23T05:49:28;5.80;99.90
1546;DHT22;766;51.502;9.752;2024-03-23T05:51:59;5.80;99.90
1546;DHT22;766;51.502;9.752;2024-03-23T05:54:28;5.80;99.90
1546;DHT22;766;51.502;9.752;2024-03-23T05:56:55;5.80;99.90
1546;DHT22;766;51.502;9.752;2024-03-23T05:59:21;5.70;99.90
1546;DHT22;766;51.502;9.752;2024-03-23T06:01:49;5.80;99.90
1546;DHT22;766;51.502;9.752;2024-03-23T06:04:15;5.70;99.90
1546;DHT22;766;51.502;9.752;2024-03-23T06:06:43;5.70;99.90
1546;DHT22;766;51.502;9.752;2024-03-23T06:09:09;5.70;99.90
1546;DHT22;766;51.502;9.752;2024-03-23T06:11:37;5.70;99.90
1546;DHT22;766;51.502;9.752;2024-03-23T06:14:03;5.70;99.90
1546;DHT22;766;51.502;9.752;2024-03-23T06:16:31;5.70;99.90
1546;DHT22;766;51.502;9.752;2024-03-23T06:19:00;5.70;99.90
1546;DHT22;766;51.502;9.752;2024-03-23T06:21:29;5.70;99.90
1546;DHT22;766;51.502;9.752;2024-03-23T06:23:57;5.70;99.90
1546;DHT22;766;51.502;9.752;2024-03-23T06:26:26;5.60;99.90
1546;DHT22;766;51.502;9.752;2024-03-23T06:28:52;5.50;99.90
1546;DHT22;766;51.502;9.752;2024-03-23T06:31:19;5.60;99.90
1546;DHT22;766;51.502;9.752;2024-03-23T06:33:46;5.60;99.90
1546;DHT22;766;51.502;9.752;2024-03-23T06:36:13;5.60;99.90
1546;DHT22;766;51.502;9.752;2024-03-23T06:38:39;5.50;99.90
1546;DHT22;766;51.502;9.752;2024-03-23T06:41:08;5.50;99.90
1546;DHT22;766;51.502;9.752;2024-03-23T06:43:34;5.50;99.90
1546;DHT22;766;51.502;9.752;2024-03-23T06:46:05;5.50;99.90
1546;DHT22;766;51.502;9.752;2024-03-23T06:48:31;5.40;99.90
1546;DHT22;766;51.502;9.752;2024-03-23T06:50:58;5.40;99.90
1546;DHT22;766;51.502;9.752;2024-03-23T06:53:25;5.40;99.90
1546;DHT22;766;51.502;9.752;2024-03-23T06:55:53;5.40;99.90
1546;DHT22;766;51.502;9.752;2024-03-23T06:58:26;5.40;99.90
1546;DHT22;766;51.502;9.752;2024-03-23T07:00:54;5.40;99.90
1546;DHT22;766;51.502;9.752;2024-03-23T07:03:20;5.40;99.90
1546;DHT22;766;51.502;9.752;2024-03-23T07:05:48;5.40;99.90
1546;DHT22;766;51.502;9.752;2024-03-23T07:08:14;5.30;99.90
1546;DHT22;766;51.502;9.752;2024-03-23T07:10:47;5.30;99.90
1546;DHT22;766;51.502;9.752;2024-03-23T07:13:13;5.30;99.90
1546;DHT22;766;51.502;9.752;2024-03-23T07:15:42;5.30;99.90
1546;DHT22;766;51.502;9.752;2024-03-23T07:18:08;5.30;99.90
1546;DHT22;766;51.502;9.752;2024-03-23T07:20:35;5.30;99.90
1546;DHT22;766;51.502;9.752;2024-03-23T07:23:02;5.30;99.90
1546;DHT22;766;51.502;9.752;2024-03-23T07:25:32;5.30;99.90
1546;DHT22;766;51.502;9.752;2024-03-23T07:28:05;5.30;99.90
1546;DHT22;766;51.502;9.752;2024-03-23T07:30:32;5.30;99.90
1546;DHT22;766;51.502;9.752;2024-03-23T07:32:59;5.30;99.90
1546;DHT22;766;51.502;9.752;2024-03-23T07:35:27;5.30;99.90
1546;DHT22;766;51.502;9.752;2024-03-23T07:37:53;5.50;99.90
1546;DHT22;766;51.502;9.752;2024-03-23T07:40:20;5.50;99.90
1546;DHT22;766;51.502;9.752;2024-03-23T07:42:46;5.60;99.90
1546;DHT22;766;51.502;9.752;2024-03-23T07:45:13;5.60;99.90
1546;DHT22;766;51.502;9.752;2024-03-23T07:47:40;5.60;99.90
1546;DHT22;766;51.502;9.752;2024-03-23T07:50:09;5.60;99.90
1546;DHT22;766;51.502;9.752;2024-03-23T07:52:36;5.60;99.90
1546;DHT22;766;51.502;9.752;2024-03-23T07:55:03;5.70;99.90
1546;DHT22;766;51.502;9.752;2024-03-23T07:57:31;5.70;99.90
1546;DHT22;766;51.502;9.752;2024-03-23T07:59:57;5.80;99.90
1546;DHT22;766;51.502;9.752;2024-03-23T08:02:25;5.80;99.90
1546;DHT22;766;51.502;9.752;2024-03-23T08:04:51;5.80;99.90
1546;DHT22;766;51.502;9.752;2024-03-23T08:07:20;5.70;99.90
1546;DHT22;766;51.502;9.752;2024-03-23T08:09:46;5.70;99.90
1546;DHT22;766;51.502;9.752;2024-03-23T08:12:14;5.60;99.90
1546;DHT22;766;51.502;9.752;2024-03-23T08:14:40;5.70;99.90
1546;DHT22;766;51.502;9.752;2024-03-23T08:17:08;5.70;99.90
1546;DHT22;766;51.502;9.752;2024-03-23T08:19:34;5.80;99.90
1546;DHT22;766;51.502;9.752;2024-03-23T08:22:01;5.80;99.90
1546;DHT22;766;51.502;9.752;2024-03-23T08:24:29;5.80;99.90
1546;DHT22;766;51.502;9.752;2024-03-23T08:26:57;5.80;99.90
1546;DHT22;766;51.502;9.752;2024-03-23T08:29:23;6.00;99.90
1546;DHT22;766;51.502;9.752;2024-03-23T08:31:50;6.10;99.90
1546;DHT22;766;51.502;9.752;2024-03-23T08:34:17;6.10;99.90
1546;DHT22;766;51.502;9.752;2024-03-23T08:36:47;6.10;99.90
1546;DHT22;766;51.502;9.752;2024-03-23T08:39:13;6.10;99.90
1546;DHT22;766;51.502;9.752;2024-03-23T08:41:42;6.10;99.90
1546;DHT22;766;51.502;9.752;2024-03-23T08:44:11;6.10;99.90
1546;DHT22;766;51.502;9.752;2024-03-23T08:46:42;6.10;99.90
1546;DHT22;766;51.502;9.752;2024-03-23T08:49:08;6.20;99.90
1546;DHT22;766;51.502;9.752;2024-03-23T08:51:35;6.20;99.90
1546;DHT22;766;51.502;9.752;2024-03-23T08:54:02;6.10;99.90
1546;DHT22;766;51.502;9.752;2024-03-23T08:56:29;6.10;99.90
1546;DHT22;766;51.502;9.752;2024-03-23T08:58:57;6.20;99.90
1546;DHT22;766;51.502;9.752;2024-03-23T09:01:24;6.30;99.90
1546;DHT22;766;51.502;9.752;2024-03-23T09:03:50;6.40;99.90
1546;DHT22;766;51.502;9.752;2024-03-23T09:06:18;6.40;99.90
1546;DHT22;766;51.502;9.752;2024-03-23T09:08:44;6.50;99.90
1546;DHT22;766;51.502;9.752;2024-03-23T09:11:13;6.50;99.90
1546;DHT22;766;51.502;9.752;2024-03-23T09:13:39;6.50;99.90
1546;DHT22;766;51.502;9.752;2024-03-23T09:16:10;6.50;99.90
1546;DHT22;766;51.502;9.752;2024-03-23T09:18:37;6.40;99.90
1546;DHT22;766;51.502;9.752;2024-03-23T09:21:10;6.40;99.90
1546;DHT22;766;51.502;9.752;2024-03-23T09:23:37;6.40;99.90
1546;DHT22;766;51.502;9.752;2024-03-23T09:26:04;6.60;99.90
1546;DHT22;766;51.502;9.752;2024-03-23T09:28:30;6.70;99.90
1546;DHT22;766;51.502;9.752;2024-03-23T09:31:02;6.90;99.90
1546;DHT22;766;51.502;9.752;2024-03-23T09:33:34;6.90;99.90
1546;DHT22;766;51.502;9.752;2024-03-23T09:36:03;7.30;99.90
1546;DHT22;766;51.502;9.752;2024-03-23T09:38:30;7.50;99.90
1546;DHT22;766;51.502;9.752;2024-03-23T09:40:57;7.70;99.90
1546;DHT22;766;51.502;9.752;2024-03-23T09:43:24;8.00;99.90
1546;DHT22;766;51.502;9.752;2024-03-23T09:45:53;8.20;99.90
1546;DHT22;766;51.502;9.752;2024-03-23T09:48:20;8.50;99.90
1546;DHT22;766;51.502;9.752;2024-03-23T09:50:48;8.30;99.90
1546;DHT22;766;51.502;9.752;2024-03-23T09:53:15;8.20;99.90
1546;DHT22;766;51.502;9.752;2024-03-23T09:55:43;8.10;99.90
1546;DHT22;766;51.502;9.752;2024-03-23T09:58:16;8.20;99.90
1546;DHT22;766;51.502;9.752;2024-03-23T10:00:44;8.40;99.90
1546;DHT22;766;51.502;9.752;2024-03-23T10:03:13;8.70;99.90
1546;DHT22;766;51.502;9.752;2024-03-23T10:05:40;9.10;99.90
1546;DHT22;766;51.502;9.752;2024-03-23T10:08:19;9.20;99.90
1546;DHT22;766;51.502;9.752;2024-03-23T10:10:46;9.10;99.90
1546;DHT22;766;51.502;9.752;2024-03-23T10:13:24;8.80;99.90
1546;DHT22;766;51.502;9.752;2024-03-23T10:15:56;8.60;99.90
1546;DHT22;766;51.502;9.752;2024-03-23T10:18:23;8.50;99.90
1546;DHT22;766;51.502;9.752;2024-03-23T10:20:52;8.10;99.90
1546;DHT22;766;51.502;9.752;2024-03-23T10:23:23;7.90;99.90
1546;DHT22;766;51.502;9.752;2024-03-23T10:25:50;7.60;99.90
1546;DHT22;766;51.502;9.752;2024-03-23T10:28:16;7.70;99.90
1546;DHT22;766;51.502;9.752;2024-03-23T10:30:43;7.70;99.90
1546;DHT22;766;51.502;9.752;2024-03-23T10:33:10;7.80;99.90
1546;DHT22;766;51.502;9.752;2024-03-23T10:35:39;8.10;99.90
1546;DHT22;766;51.502;9.752;2024-03-23T10:38:06;8.30;99.90
1546;DHT22;766;51.502;9.752;2024-03-23T10:40:35;8.50;99.90
1546;DHT22;766;51.502;9.752;2024-03-23T10:43:03;8.50;99.90
1546;DHT22;766;51.502;9.752;2024-03-23T10:45:31;8.40;99.90
1546;DHT22;766;51.502;9.752;2024-03-23T10:47:59;8.30;99.90
1546;DHT22;766;51.502;9.752;2024-03-23T10:50:27;8.60;99.90
1546;DHT22;766;51.502;9.752;2024-03-23T10:52:53;8.80;99.90
1546;DHT22;766;51.502;9.752;2024-03-23T10:55:24;8.90;99.90
1546;DHT22;766;51.502;9.752;2024-03-23T10:57:54;8.90;99.90
1546;DHT22;766;51.502;9.752;2024-03-23T11:00:22;8.90;99.90
1546;DHT22;766;51.502;9.752;2024-03-23T11:02:49;9.00;99.90
1546;DHT22;766;51.502;9.752;2024-03-23T11:05:28;9.10;99.90
1546;DHT22;766;51.502;9.752;2024-03-23T11:07:56;8.70;99.90
1546;DHT22;766;51.502;9.752;2024-03-23T11:10:26;8.70;99.90
1546;DHT22;766;51.502;9.752;2024-03-23T11:12:56;8.50;99.90
1546;DHT22;766;51.502;9.752;2024-03-23T11:15:22;8.50;99.90
1546;DHT22;766;51.502;9.752;2024-03-23T11:18:03;7.80;99.90
1546;DHT22;766;51.502;9.752;2024-03-23T11:20:34;7.20;99.90
1546;DHT22;766;51.502;9.752;2024-03-23T11:23:01;7.00;99.90
1546;DHT22;766;51.502;9.752;2024-03-23T11:25:28;6.90;99.90
1546;DHT22;766;51.502;9.752;2024-03-23T11:27:58;6.70;99.90
1546;DHT22;766;51.502;9.752;2024-03-23T11:30:35;6.40;99.90
1546;DHT22;766;51.502;9.752;2024-03-23T11:33:04;6.30;99.90
1546;DHT22;766;51.502;9.752;2024-03-23T11:35:31;6.30;99.90
1546;DHT22;766;51.502;9.752;2024-03-23T11:38:04;6.30;99.90
1546;DHT22;766;51.502;9.752;2024-03-23T11:40:31;6.30;99.90
1546;DHT22;766;51.502;9.752;2024-03-23T11:43:00;6.20;99.90
1546;DHT22;766;51.502;9.752;2024-03-23T11:45:31;6.70;99.90
1546;DHT22;766;51.502;9.752;2024-03-23T11:48:06;7.30;99.90
1546;DHT22;766;51.502;9.752;2024-03-23T11:50:33;7.80;99.90
1546;DHT22;766;51.502;9.752;2024-03-23T11:53:08;8.00;99.90
1546;DHT22;766;51.502;9.752;2024-03-23T11:55:42;8.20;99.90
1546;DHT22;766;51.502;9.752;2024-03-23T11:58:11;7.90;99.90
1546;DHT22;766;51.502;9.752;2024-03-23T12:00:39;7.60;99.90
1546;DHT22;766;51.502;9.752;2024-03-23T12:03:06;7.60;99.90
1546;DHT22;766;51.502;9.752;2024-03-23T12:05:33;7.50;99.90
1546;DHT22;766;51.502;9.752;2024-03-23T12:08:21;7.10;99.90
1546;DHT22;766;51.502;9.752;2024-03-23T12:10:50;6.90;99.90
1546;DHT22;766;51.502;9.752;2024-03-23T12:13:23;6.80;99.90
1546;DHT22;766;51.502;9.752;2024-03-23T12:15:51;7.10;99.90
1546;DHT22;766;51.502;9.752;2024-03-23T12:18:17;7.10;99.90
1546;DHT22;766;51.502;9.752;2024-03-23T12:20:50;7.20;99.90
1546;DHT22;766;51.502;9.752;2024-03-23T12:23:16;7.20;99.90
1546;DHT22;766;51.502;9.752;2024-03-23T12:25:43;7.10;99.90
1546;DHT22;766;51.502;9.752;2024-03-23T12:28:10;7.00;99.90
1546;DHT22;766;51.502;9.752;2024-03-23T12:30:40;6.90;99.90
1546;DHT22;766;51.502;9.752;2024-03-23T12:33:06;7.00;99.90
1546;DHT22;766;51.502;9.752;2024-03-23T12:35:33;6.90;99.90
1546;DHT22;766;51.502;9.752;2024-03-23T12:38:03;6.80;99.90
1546;DHT22;766;51.502;9.752;2024-03-23T12:40:30;6.70;99.90
1546;DHT22;766;51.502;9.752;2024-03-23T12:42:56;6.70;99.90
1546;DHT22;766;51.502;9.752;2024-03-23T12:45:23;6.90;99.90
1546;DHT22;766;51.502;9.752;2024-03-23T12:47:51;7.20;99.90
1546;DHT22;766;51.502;9.752;2024-03-23T12:50:20;7.50;99.90
1546;DHT22;766;51.502;9.752;2024-03-23T12:52:47;7.90;99.90
1546;DHT22;766;51.502;9.752;2024-03-23T12:55:14;8.30;99.90
1546;DHT22;766;51.502;9.752;2024-03-23T12:57:40;8.70;99.90
1546;DHT22;766;51.502;9.752;2024-03-23T13:00:09;9.00;99.90
1546;DHT22;766;51.502;9.752;2024-03-23T13:02:37;9.20;99.90
1546;DHT22;766;51.502;9.752;2024-03-23T13:05:07;9.30;99.90
1546;DHT22;766;51.502;9.752;2024-03-23T13:07:35;9.50;99.90
1546;DHT22;766;51.502;9.752;2024-03-23T13:10:04;9.60;99.90
1546;DHT22;766;51.502;9.752;2024-03-23T13:12:31;9.70;99.90
1546;DHT22;766;51.502;9.752;2024-03-23T13:14:59;9.60;99.90
1546;DHT22;766;51.502;9.752;2024-03-23T13:17:25;9.60;99.90
1546;DHT22;766;51.502;9.752;2024-03-23T13:19:54;9.30;99.90
1546;DHT22;766;51.502;9.752;2024-03-23T13:22:23;9.30;99.90
1546;DHT22;766;51.502;9.752;2024-03-23T13:24:50;9.50;99.90
1546;DHT22;766;51.502;9.752;2024-03-23T13:27:19;9.00;99.90
1546;DHT22;766;51.502;9.752;2024-03-23T13:29:46;8.60;99.90
1546;DHT22;766;51.502;9.752;2024-03-23T13:32:13;8.50;99.90
1546;DHT22;766;51.502;9.752;2024-03-23T13:34:40;8.30;99.90
1546;DHT22;766;51.502;9.752;2024-03-23T13:37:07;8.30;99.90
1546;DHT22;766;51.502;9.752;2024-03-23T13:39:41;8.40;99.90
1546;DHT22;766;51.502;9.752;2024-03-23T13:42:08;8.40;99.90
1546;DHT22;766;51.502;9.752;2024-03-23T13:44:35;8.40;99.90
1546;DHT22;766;51.502;9.752;2024-03-23T13:47:02;8.30;99.90
1546;DHT22;766;51.502;9.752;2024-03-23T13:49:30;8.40;99.90
1546;DHT22;766;51.502;9.752;2024-03-23T13:51:58;8.40;99.90
1546;DHT22;766;51.502;9.752;2024-03-23T13:54:25;7.90;99.90
1546;DHT22;766;51.502;9.752;2024-03-23T13:56:54;7.40;99.90
1546;DHT22;766;51.502;9.752;2024-03-23T13:59:22;7.00;99.90
1546;DHT22;766;51.502;9.752;2024-03-23T14:01:49;6.80;99.90
1546;DHT22;766;51.502;9.752;2024-03-23T14:04:17;6.70;99.90
1546;DHT22;766;51.502;9.752;2024-03-23T14:06:45;6.60;99.90
1546;DHT22;766;51.502;9.752;2024-03-23T14:09:13;6.40;99.90
1546;DHT22;766;51.502;9.752;2024-03-23T14:11:42;6.30;99.90
1546;DHT22;766;51.502;9.752;2024-03-23T14:14:11;6.10;99.90
1546;DHT22;766;51.502;9.752;2024-03-23T14:16:37;6.00;99.90
1546;DHT22;766;51.502;9.752;2024-03-23T14:19:04;5.80;99.90
1546;DHT22;766;51.502;9.752;2024-03-23T14:21:31;5.60;99.90
1546;DHT22;766;51.502;9.752;2024-03-23T14:24:00;5.80;99.90
1546;DHT22;766;51.502;9.752;2024-03-23T14:26:26;6.30;99.90
1546;DHT22;766;51.502;9.752;2024-03-23T14:28:54;6.80;99.90
1546;DHT22;766;51.502;9.752;2024-03-23T14:31:22;7.10;99.90
1546;DHT22;766;51.502;9.752;2024-03-23T14:33:51;7.10;99.90
1546;DHT22;766;51.502;9.752;2024-03-23T14:36:18;7.10;99.90
1546;DHT22;766;51.502;9.752;2024-03-23T14:38:47;7.10;99.90
1546;DHT22;766;51.502;9.752;2024-03-23T14:41:14;7.20;99.90
1546;DHT22;766;51.502;9.752;2024-03-23T14:43:41;7.20;99.90
1546;DHT22;766;51.502;9.752;2024-03-23T14:46:10;7.20;99.90
1546;DHT22;766;51.502;9.752;2024-03-23T14:48:41;7.30;99.90
1546;DHT22;766;51.502;9.752;2024-03-23T14:51:09;7.40;99.90
1546;DHT22;766;51.502;9.752;2024-03-23T14:53:38;7.40;99.90
1546;DHT22;766;51.502;9.752;2024-03-23T14:56:06;7.40;99.90
1546;DHT22;766;51.502;9.752;2024-03-23T14:58:36;7.50;99.90
1546;DHT22;766;51.502;9.752;2024-03-23T15:01:03;7.50;99.90
1546;DHT22;766;51.502;9.752;2024-03-23T15:03:31;7.50;99.90
1546;DHT22;766;51.502;9.752;2024-03-23T15:05:59;7.50;99.90
1546;DHT22;766;51.502;9.752;2024-03-23T15:08:27;7.60;99.90
1546;DHT22;766;51.502;9.752;2024-03-23T15:10:54;7.60;99.90
1546;DHT22;766;51.502;9.752;2024-03-23T15:13:24;7.60;99.90
1546;DHT22;766;51.502;9.752;2024-03-23T15:15:50;7.60;99.90
1546;DHT22;766;51.502;9.752;2024-03-23T15:18:18;7.50;99.90
1546;DHT22;766;51.502;9.752;2024-03-23T15:20:57;7.50;99.90
1546;DHT22;766;51.502;9.752;2024-03-23T15:23:29;7.40;99.90
1546;DHT22;766;51.502;9.752;2024-03-23T15:25:56;7.40;99.90
1546;DHT22;766;51.502;9.752;2024-03-23T15:28:24;7.40;99.90
1546;DHT22;766;51.502;9.752;2024-03-23T15:30:52;7.30;99.90
1546;DHT22;766;51.502;9.752;2024-03-23T15:33:19;7.20;99.90
1546;DHT22;766;51.502;9.752;2024-03-23T15:35:46;7.20;99.90
1546;DHT22;766;51.502;9.752;2024-03-23T15:38:13;7.20;99.90
1546;DHT22;766;51.502;9.752;2024-03-23T15:40:40;7.20;99.90
1546;DHT22;766;51.502;9.752;2024-03-23T15:43:07;7.10;99.90
1546;DHT22;766;51.502;9.752;2024-03-23T15:45:34;7.00;99.90
1546;DHT22;766;51.502;9.752;2024-03-23T15:48:01;6.80;99.90
1546;DHT22;766;51.502;9.752;2024-03-23T15:50:27;6.90;99.90
1546;DHT22;766;51.502;9.752;2024-03-23T15:52:54;6.80;99.90
1546;DHT22;766;51.502;9.752;2024-03-23T15:55:22;7.00;99.90
1546;DHT22;766;51.502;9.752;2024-03-23T15:57:50;7.10;99.90
1546;DHT22;766;51.502;9.752;2024-03-23T16:00:17;7.20;99.90
1546;DHT22;766;51.502;9.752;2024-03-23T16:02:45;7.30;99.90
1546;DHT22;766;51.502;9.752;2024-03-23T16:05:12;7.40;99.90
1546;DHT22;766;51.502;9.752;2024-03-23T16:07:39;7.50;99.90
1546;DHT22;766;51.502;9.752;2024-03-23T16:10:06;7.50;99.90
1546;DHT22;766;51.502;9.752;2024-03-23T16:12:35;7.50;99.90
1546;DHT22;766;51.502;9.752;2024-03-23T16:15:04;7.50;99.90
1546;DHT22;766;51.502;9.752;2024-03-23T16:17:31;7.40;99.90
1546;DHT22;766;51.502;9.752;2024-03-23T16:20:02;7.40;99.90
1546;DHT22;766;51.502;9.752;2024-03-23T16:22:30;7.30;99.90
1546;DHT22;766;51.502;9.752;2024-03-23T16:24:56;7.20;99.90
1546;DHT22;766;51.502;9.752;2024-03-23T16:27:23;7.20;99.90
1546;DHT22;766;51.502;9.752;2024-03-23T16:29:50;7.10;99.90
1546;DHT22;766;51.502;9.752;2024-03-23T16:32:18;7.10;99.90
1546;DHT22;766;51.502;9.752;2024-03-23T16:34:44;7.00;99.90
1546;DHT22;766;51.502;9.752;2024-03-23T16:37:12;7.00;99.90
1546;DHT22;766;51.502;9.752;2024-03-23T16:39:38;6.90;99.90
1546;DHT22;766;51.502;9.752;2024-03-23T16:42:05;6.90;99.90
1546;DHT22;766;51.502;9.752;2024-03-23T16:44:32;6.90;99.90
1546;DHT22;766;51.502;9.752;2024-03-23T16:46:59;6.90;99.90
1546;DHT22;766;51.502;9.752;2024-03-23T16:49:27;7.00;99.90
1546;DHT22;766;51.502;9.752;2024-03-23T16:51:54;7.00;99.90
1546;DHT22;766;51.502;9.752;2024-03-23T16:54:20;7.00;99.90
1546;DHT22;766;51.502;9.752;2024-03-23T16:56:48;7.00;99.90
1546;DHT22;766;51.502;9.752;2024-03-23T16:59:14;7.00;99.90
1546;DHT22;766;51.502;9.752;2024-03-23T17:01:44;7.10;99.90
1546;DHT22;766;51.502;9.752;2024-03-23T17:04:10;7.10;99.90
1546;DHT22;766;51.502;9.752;2024-03-23T17:06:39;7.10;99.90
1546;DHT22;766;51.502;9.752;2024-03-23T17:09:05;7.00;99.90
1546;DHT22;766;51.502;9.752;2024-03-23T17:11:33;6.80;99.90
1546;DHT22;766;51.502;9.752;2024-03-23T17:13:59;6.60;99.90
1546;DHT22;766;51.502;9.752;2024-03-23T17:16:26;6.60;99.90
1546;DHT22;766;51.502;9.752;2024-03-23T17:18:56;6.60;99.90
1546;DHT22;766;51.502;9.752;2024-03-23T17:21:23;6.60;99.90
1546;DHT22;766;51.502;9.752;2024-03-23T17:23:51;6.50;99.90
1546;DHT22;766;51.502;9.752;2024-03-23T17:26:19;6.50;99.90
1546;DHT22;766;51.502;9.752;2024-03-23T17:28:46;6.40;99.90
1546;DHT22;766;51.502;9.752;2024-03-23T17:31:17;6.30;99.90